Etusivu
METAR-TAF:

METAR-TAF

Lentoasemat :

Cienfuegos, Kuuba

Leveyspiiri: 22-09N, Pituuspiiri: 080-24W, korkeus merenpinnasta: 39 m

Tämänhetkinen sää

Tämä raportti tehtiin 42 minuuttia sitten, kello 08.58 UTC
Tuuli 5 kn idästä/koillisesta
Lämpötila 18°C
Kosteus 94%
Ilmanpaine 1017 hPa

METAR: MUCF 260858Z AUTO 06005KT 18/17 Q1017

Aika: 04:40 (09:40 UTC)

Sääennuste

Tämä raportti tehtiin 16 tuntia ja 40 minuuttia sitten, kello 17.00 UTC
Ennuste voimassa 25. päivästä klo 18 UTC - 26. päivään klo 06 UTC
Tuuli 3 kn eri suunnista
Näkyvyys: 9000 m
Hajanaisia pilviä 2000 ft:n korkeudessa
Ajoittain
25. päivästä klo 18 UTC - 25. päivään klo 23 UTC
Tuuli 7 kn lounaasta

TAF: MUCF 251700Z 2518/2606 VRB03KT 9000 SCT020 TEMPO 2518/2523 22007KT

Säähavainnot ja -ennusteet yli 4000 lentoasemalta (METAR- ja TAF-raportit).

Käytössä olevat sääasemat on merkitty karttaan keltaisilla ja punaisilla pisteillä.

Aseta hiiri pisteen päälle nähdäksesi sääaseman nimen.

Klikkaa sitten nähdäksesi säähavainnot ja -ennusteet.

Kartan vaihtaminen: klikkaa mustalla rastilla varustettuja vihreitä pisteitä, niin voit zoomata sisään; viivalla varustettua vihreää pistettä, niin voit zoomata ulos tai vihreitä nuolia, niin pääset viereisille kartoille.


METAR-TAF: